Time;durP1;ratioP1;P1;durP2;ratioP2;P2;SDS_P1;SDS_P2;PMS_P1;PMS_P2;Temp;Humidity;BMP_temperature;BMP_pressure;BME280_temperature;BME280_humidity;BME280_pressure;Samples;Min_cycle;Max_cycle;Signal;HPM_P1;HPM_P2
2021/06/23 00:01:14;;;;;;;3.58;2.72;;;18.20;99.90;;;;;;5062004;28;20029;-64
2021/06/23 00:03:40;;;;;;;6.13;3.63;;;18.10;99.90;;;;;;5063585;28;20031;-64
2021/06/23 00:06:06;;;;;;;4.65;2.80;;;18.10;99.90;;;;;;5059918;28;20108;-64
2021/06/23 00:08:32;;;;;;;3.47;2.88;;;18.10;99.90;;;;;;5065593;28;20129;-64
2021/06/23 00:10:58;;;;;;;8.18;3.60;;;18.10;99.90;;;;;;5062823;28;20036;-64
2021/06/23 00:13:24;;;;;;;5.57;4.72;;;18.10;99.90;;;;;;5061912;28;20025;-64
2021/06/23 00:15:50;;;;;;;6.97;4.72;;;18.10;99.90;;;;;;5062090;28;20432;-65
2021/06/23 00:18:16;;;;;;;7.38;4.88;;;18.10;99.90;;;;;;5055991;28;20029;-64
2021/06/23 00:20:41;;;;;;;8.98;5.07;;;18.10;99.90;;;;;;5058274;28;21392;-64
2021/06/23 00:23:07;;;;;;;6.03;5.45;;;18.10;99.90;;;;;;5059818;28;20462;-65
2021/06/23 00:25:33;;;;;;;6.10;4.95;;;18.10;99.90;;;;;;5052376;28;20040;-64
2021/06/23 00:27:58;;;;;;;8.02;5.38;;;18.10;99.90;;;;;;5051970;28;20036;-64
2021/06/23 00:30:25;;;;;;;7.82;5.10;;;18.00;99.90;;;;;;5070582;28;20032;-64
2021/06/23 00:32:52;;;;;;;5.60;5.10;;;18.00;99.90;;;;;;5070444;28;20036;-64
2021/06/23 00:35:19;;;;;;;7.60;5.03;;;18.00;99.90;;;;;;5063343;28;20098;-64
2021/06/23 00:37:45;;;;;;;5.57;5.07;;;18.00;99.90;;;;;;5070127;28;20060;-64
2021/06/23 00:40:11;;;;;;;8.43;5.97;;;18.00;99.90;;;;;;5068166;28;20028;-64
2021/06/23 00:42:39;;;;;;;6.28;5.47;;;18.00;99.90;;;;;;5070176;28;20112;-64
2021/06/23 00:45:07;;;;;;;6.93;5.57;;;17.90;99.90;;;;;;5069316;28;20020;-65
2021/06/23 00:47:34;;;;;;;5.72;5.20;;;17.90;99.90;;;;;;5070534;28;20024;-64
2021/06/23 00:50:07;;;;;;;7.43;5.65;;;17.90;99.90;;;;;;5069452;28;20059;-64
2021/06/23 00:55:21;;;;;;;9.02;5.82;;;17.80;99.90;;;;;;5067763;28;20523;-65
2021/06/23 00:57:50;;;;;;;7.15;6.00;;;17.80;99.90;;;;;;5068962;28;20154;-64
2021/06/23 01:00:17;;;;;;;9.70;6.22;;;17.70;99.90;;;;;;5068138;28;20037;-66
2021/06/23 01:02:43;;;;;;;8.77;6.75;;;17.60;99.90;;;;;;5061452;28;20036;-65
2021/06/23 01:05:09;;;;;;;6.50;5.90;;;17.60;99.90;;;;;;5068225;28;20386;-65
2021/06/23 01:07:35;;;;;;;10.80;5.80;;;17.50;99.90;;;;;;5068302;28;20040;-65
2021/06/23 01:10:01;;;;;;;6.70;5.80;;;;;;;;;;5067911;28;20028;-65
2021/06/23 01:12:28;;;;;;;6.38;5.40;;;;;;;;;;5068573;28;20028;-65
2021/06/23 01:14:59;;;;;;;6.50;5.90;;;;;;;;;;5068245;28;20074;-64
2021/06/23 01:17:28;;;;;;;7.60;5.80;;;;;;;;;;5068130;28;20033;-65
2021/06/23 01:20:01;;;;;;;5.53;4.97;;;;;;;;;;5066484;28;20103;-63
2021/06/23 01:22:27;;;;;;;9.68;5.88;;;;;;;;;;5067908;28;20029;-63
2021/06/23 01:24:53;;;;;;;6.90;5.45;;;17.30;99.90;;;;;;5067447;28;20485;-63
2021/06/23 01:27:19;;;;;;;7.20;6.15;;;17.30;99.90;;;;;;5067400;28;20024;-64
2021/06/23 01:29:44;;;;;;;10.70;6.70;;;17.20;99.90;;;;;;5067924;28;20024;-64
2021/06/23 01:32:10;;;;;;;9.55;7.18;;;17.20;99.90;;;;;;5066865;28;20028;-63
2021/06/23 01:34:37;;;;;;;10.10;7.00;;;17.10;99.90;;;;;;5067401;28;20098;-64
2021/06/23 01:37:03;;;;;;;8.02;7.22;;;17.10;99.90;;;;;;5067101;28;20029;-63
2021/06/23 01:39:29;;;;;;;9.20;6.75;;;17.20;99.90;;;;;;5067305;28;20454;-64
2021/06/23 01:41:55;;;;;;;8.02;6.88;;;17.20;99.90;;;;;;5067328;28;20063;-63
2021/06/23 01:44:21;;;;;;;8.27;6.90;;;17.20;99.90;;;;;;5067207;28;20037;-64
2021/06/23 01:46:47;;;;;;;8.77;5.90;;;17.20;99.90;;;;;;5067664;28;20048;-63
2021/06/23 01:49:20;;;;;;;9.85;6.32;;;17.20;99.90;;;;;;5066684;28;20028;-64
2021/06/23 01:51:45;;;;;;;7.75;6.18;;;17.20;99.90;;;;;;5067575;28;20469;-64
2021/06/23 01:54:11;;;;;;;8.27;6.25;;;17.10;99.90;;;;;;5066243;28;20098;-65
2021/06/23 01:56:37;;;;;;;7.65;6.10;;;17.10;99.90;;;;;;5067274;28;20040;-64
2021/06/23 01:59:02;;;;;;;9.52;6.57;;;17.10;99.90;;;;;;5066167;28;20074;-65
2021/06/23 02:01:43;;;;;;;9.55;6.93;;;17.10;99.90;;;;;;5067190;28;20033;-64
2021/06/23 02:04:18;;;;;;;6.80;6.00;;;17.00;99.90;;;;;;5066351;28;20029;-64
2021/06/23 02:06:49;;;;;;;6.88;6.20;;;16.90;99.90;;;;;;5052804;28;20017;-65
2021/06/23 02:09:43;;;;;;;7.25;6.40;;;16.90;99.90;;;;;;5048078;28;20851;-64
2021/06/23 02:12:17;;;;;;;9.73;7.05;;;16.90;99.90;;;;;;5044618;28;20044;-64
2021/06/23 02:14:45;;;;;;;7.57;6.30;;;16.80;99.90;;;;;;5054329;28;20029;-64
2021/06/23 02:17:12;;;;;;;7.65;5.65;;;16.80;99.90;;;;;;5053097;28;20056;-65
2021/06/23 02:19:43;;;;;;;8.43;6.90;;;16.80;99.90;;;;;;5053900;28;20028;-64
2021/06/23 02:22:16;;;;;;;9.38;7.13;;;16.80;99.90;;;;;;5053211;28;20082;-64
2021/06/23 02:24:43;;;;;;;7.47;6.72;;;16.70;99.90;;;;;;5053234;28;20036;-64
2021/06/23 02:27:09;;;;;;;7.38;6.38;;;16.70;99.90;;;;;;5052616;28;20021;-63
2021/06/23 02:29:37;;;;;;;9.43;5.93;;;16.70;99.90;;;;;;5053443;28;20482;-64
2021/06/23 02:32:04;;;;;;;7.25;6.22;;;16.60;99.90;;;;;;5052199;28;20021;-63
2021/06/23 02:34:31;;;;;;;6.95;6.22;;;16.60;99.90;;;;;;5053805;28;20037;-63
2021/06/23 02:36:58;;;;;;;10.32;6.50;;;16.60;99.90;;;;;;5053340;28;20033;-64
2021/06/23 02:39:24;;;;;;;7.97;6.00;;;16.60;99.90;;;;;;5052922;28;20025;-63
2021/06/23 02:41:50;;;;;;;7.35;5.47;;;16.60;99.90;;;;;;5053398;28;20473;-63
2021/06/23 02:44:16;;;;;;;6.47;5.88;;;16.50;99.90;;;;;;5052180;28;20029;-63
2021/06/23 02:46:42;;;;;;;9.38;5.40;;;16.50;99.90;;;;;;5053176;28;20466;-64
2021/06/23 02:49:08;;;;;;;6.00;5.47;;;16.50;99.90;;;;;;5051137;28;20390;-64
2021/06/23 02:51:41;;;;;;;8.20;6.20;;;16.50;99.90;;;;;;5053189;28;20029;-64
2021/06/23 02:54:08;;;;;;;6.10;5.10;;;16.50;99.90;;;;;;5052048;28;20053;-63
2021/06/23 02:56:35;;;;;;;4.57;4.18;;;16.50;99.90;;;;;;5053056;28;20497;-63
2021/06/23 02:59:02;;;;;;;5.32;4.82;;;16.50;99.90;;;;;;5052561;28;20028;-63
2021/06/23 03:01:28;;;;;;;6.70;4.60;;;16.50;99.90;;;;;;5053279;28;20033;-63
2021/06/23 03:03:54;;;;;;;5.68;4.13;;;16.50;99.90;;;;;;5052584;28;20437;-63
2021/06/23 03:06:19;;;;;;;6.72;5.38;;;16.50;99.90;;;;;;5052012;28;20033;-63
2021/06/23 03:08:45;;;;;;;5.10;4.60;;;16.50;99.90;;;;;;5052715;28;20025;-62
2021/06/23 03:11:10;;;;;;;4.60;4.15;;;16.50;99.90;;;;;;5052410;28;20435;-63
2021/06/23 03:13:36;;;;;;;6.05;4.53;;;16.50;99.90;;;;;;5052874;28;20048;-63
2021/06/23 03:16:03;;;;;;;7.75;4.57;;;16.40;99.90;;;;;;5051832;28;20032;-64
2021/06/23 03:18:29;;;;;;;4.97;4.43;;;16.40;99.90;;;;;;5051746;28;20059;-64
2021/06/23 03:20:55;;;;;;;5.93;4.43;;;16.40;99.90;;;;;;5052282;28;20508;-63
2021/06/23 03:23:21;;;;;;;5.82;4.72;;;16.40;99.90;;;;;;5051554;28;20053;-63
2021/06/23 03:25:46;;;;;;;4.63;3.83;;;16.40;99.90;;;;;;5052590;28;20053;-63
2021/06/23 03:28:12;;;;;;;7.45;4.55;;;16.40;99.90;;;;;;5051942;28;20104;-66
2021/06/23 03:30:38;;;;;;;7.18;4.38;;;16.40;99.90;;;;;;5052429;28;20470;-66
2021/06/23 03:33:04;;;;;;;5.25;4.75;;;16.40;99.90;;;;;;5051364;28;20037;-66
2021/06/23 03:35:30;;;;;;;4.15;3.38;;;16.40;99.90;;;;;;5052886;28;20040;-65
2021/06/23 03:37:56;;;;;;;3.90;3.60;;;16.40;99.90;;;;;;5052148;28;20052;-65
2021/06/23 03:40:24;;;;;;;4.32;3.90;;;16.40;99.90;;;;;;5051606;28;20506;-63
2021/06/23 03:42:49;;;;;;;4.00;3.63;;;16.40;99.90;;;;;;5052162;28;20380;-63
2021/06/23 03:45:16;;;;;;;3.80;3.40;;;16.40;99.90;;;;;;5051178;28;20029;-63
2021/06/23 03:47:42;;;;;;;4.20;3.58;;;16.50;99.90;;;;;;5051912;28;20039;-64
2021/06/23 03:50:09;;;;;;;3.88;3.28;;;16.50;99.90;;;;;;5051831;28;20044;-64
2021/06/23 03:52:35;;;;;;;4.28;3.55;;;16.50;99.90;;;;;;5051761;28;20025;-64
2021/06/23 03:55:01;;;;;;;4.88;4.35;;;16.50;99.90;;;;;;5051460;28;20128;-63
2021/06/23 03:57:27;;;;;;;4.22;3.67;;;16.50;99.90;;;;;;5051164;28;20135;-63
2021/06/23 03:59:53;;;;;;;5.63;4.10;;;16.50;99.90;;;;;;5052096;28;20028;-63
2021/06/23 04:02:19;;;;;;;4.45;3.28;;;16.50;99.90;;;;;;5051177;28;20025;-63
2021/06/23 04:04:46;;;;;;;8.30;3.42;;;16.50;99.90;;;;;;5051916;28;20032;-64
2021/06/23 04:07:12;;;;;;;4.63;3.30;;;16.60;99.90;;;;;;5051186;28;20021;-63
2021/06/23 04:09:38;;;;;;;3.95;3.55;;;16.60;99.90;;;;;;5051362;28;20474;-63
2021/06/23 04:12:04;;;;;;;3.53;3.22;;;16.60;99.90;;;;;;5050908;28;20029;-64
2021/06/23 04:14:30;;;;;;;4.30;3.00;;;16.60;99.90;;;;;;5051505;28;20122;-64
2021/06/23 04:16:57;;;;;;;3.38;3.17;;;16.60;99.90;;;;;;5051799;28;20543;-64
2021/06/23 04:19:22;;;;;;;6.43;3.85;;;16.70;99.90;;;;;;5050709;28;20028;-64
2021/06/23 04:21:49;;;;;;;6.13;4.18;;;16.70;99.90;;;;;;5051489;28;20051;-63
2021/06/23 04:24:14;;;;;;;4.72;3.88;;;16.70;99.90;;;;;;5050531;28;20040;-64
2021/06/23 04:26:40;;;;;;;6.15;3.78;;;16.80;99.90;;;;;;5051429;28;20082;-64
2021/06/23 04:29:06;;;;;;;3.38;3.08;;;16.80;99.90;;;;;;5049932;28;20081;-64
2021/06/23 04:31:32;;;;;;;4.55;3.33;;;16.80;99.90;;;;;;5051732;28;20109;-64
2021/06/23 04:33:58;;;;;;;4.95;3.17;;;16.90;99.90;;;;;;5051197;28;20028;-64
2021/06/23 04:36:23;;;;;;;5.25;3.55;;;17.00;99.90;;;;;;5050742;28;20041;-63
2021/06/23 04:38:49;;;;;;;6.25;3.47;;;17.00;99.90;;;;;;5051236;28;20099;-63
2021/06/23 04:41:15;;;;;;;4.18;2.65;;;17.00;99.90;;;;;;5050798;28;20111;-64
2021/06/23 04:43:41;;;;;;;3.45;3.08;;;17.10;99.90;;;;;;5051101;28;20435;-64
2021/06/23 04:46:07;;;;;;;4.60;3.05;;;17.20;99.90;;;;;;5050239;28;20449;-64
2021/06/23 04:48:33;;;;;;;5.90;3.00;;;17.20;99.90;;;;;;5050732;28;20458;-64
2021/06/23 04:50:59;;;;;;;3.08;2.78;;;17.30;99.90;;;;;;5051184;28;20111;-64
2021/06/23 04:53:25;;;;;;;3.60;2.95;;;17.40;99.90;;;;;;5050663;28;20059;-64
2021/06/23 04:55:53;;;;;;;4.00;2.83;;;17.50;99.90;;;;;;5051309;28;20029;-64
2021/06/23 04:58:19;;;;;;;2.72;2.38;;;17.60;99.90;;;;;;5050132;28;20045;-65
2021/06/23 05:00:45;;;;;;;2.40;2.20;;;17.70;99.90;;;;;;5051371;28;20104;-65
2021/06/23 05:03:11;;;;;;;6.50;3.03;;;17.80;99.90;;;;;;5050416;28;20036;-65
2021/06/23 05:05:36;;;;;;;2.72;2.40;;;17.90;99.90;;;;;;5051262;28;20090;-64
2021/06/23 05:08:03;;;;;;;3.40;2.40;;;18.00;99.90;;;;;;5050447;28;20035;-64
2021/06/23 05:10:28;;;;;;;3.35;2.53;;;18.20;99.90;;;;;;5050527;28;20036;-65
2021/06/23 05:12:54;;;;;;;5.22;2.20;;;18.30;99.90;;;;;;5050577;28;20485;-65
2021/06/23 05:15:20;;;;;;;6.28;2.10;;;18.50;99.90;;;;;;5050189;28;20033;-64
2021/06/23 05:17:45;;;;;;;1.60;1.50;;;18.60;99.90;;;;;;5050855;28;20025;-65
2021/06/23 05:20:12;;;;;;;4.53;1.70;;;18.60;99.90;;;;;;5050250;28;20108;-64
2021/06/23 05:22:37;;;;;;;3.97;1.90;;;18.70;99.90;;;;;;5050902;28;20071;-64
2021/06/23 05:25:05;;;;;;;4.43;2.00;;;18.70;99.90;;;;;;5050202;28;20036;-64
2021/06/23 05:27:31;;;;;;;2.95;1.70;;;18.80;99.90;;;;;;5050571;28;20086;-65
2021/06/23 05:29:56;;;;;;;5.10;1.85;;;18.80;99.90;;;;;;5050058;28;20041;-64
2021/06/23 05:32:22;;;;;;;4.10;2.10;;;18.90;99.90;;;;;;5050276;28;20718;-64
2021/06/23 05:34:48;;;;;;;2.90;1.75;;;18.90;99.90;;;;;;5050350;28;20052;-64
2021/06/23 05:37:13;;;;;;;2.67;2.28;;;19.00;99.90;;;;;;5050276;28;20032;-64
2021/06/23 05:39:39;;;;;;;3.05;2.22;;;19.10;99.90;;;;;;5050700;28;20025;-64
2021/06/23 05:42:05;;;;;;;2.50;2.30;;;19.10;99.90;;;;;;5054338;28;20025;-64
2021/06/23 05:44:30;;;;;;;5.63;2.17;;;19.20;99.90;;;;;;5053823;28;20035;-64
2021/06/23 05:46:56;;;;;;;3.83;1.73;;;19.30;99.90;;;;;;5052812;28;20478;-64
2021/06/23 05:49:22;;;;;;;1.27;1.17;;;19.40;99.90;;;;;;5053592;28;20032;-65
2021/06/23 05:51:48;;;;;;;2.10;1.50;;;19.50;99.90;;;;;;5054821;28;20036;-64
2021/06/23 05:54:14;;;;;;;3.58;1.73;;;19.60;99.90;;;;;;5053308;28;20095;-64
2021/06/23 05:56:39;;;;;;;3.33;1.30;;;19.70;99.90;;;;;;5053828;28;20159;-65
2021/06/23 05:59:05;;;;;;;2.00;1.25;;;19.80;99.90;;;;;;5053401;28;20025;-64
2021/06/23 06:01:31;;;;;;;7.95;2.42;;;19.90;99.90;;;;;;5053127;28;20033;-62
2021/06/23 06:03:56;;;;;;;2.67;2.05;;;19.90;99.90;;;;;;5052181;28;20037;-62
2021/06/23 06:06:22;;;;;;;3.75;2.00;;;19.90;99.90;;;;;;5052822;28;20032;-67
2021/06/23 06:08:48;;;;;;;2.83;1.67;;;20.00;99.90;;;;;;5054081;28;20029;-63
2021/06/23 06:11:14;;;;;;;4.28;1.85;;;20.00;99.90;;;;;;5053110;28;20386;-64
2021/06/23 06:13:39;;;;;;;2.42;1.70;;;19.90;99.90;;;;;;5053670;28;20077;-72
2021/06/23 06:16:05;;;;;;;2.70;1.55;;;19.90;99.90;;;;;;5053403;28;20061;-68
2021/06/23 06:18:31;;;;;;;1.83;1.73;;;19.90;99.90;;;;;;5053091;28;20032;-70
2021/06/23 06:20:58;;;;;;;2.30;1.73;;;20.00;99.90;;;;;;5040827;28;20066;-70
2021/06/23 06:23:25;;;;;;;3.35;1.80;;;20.10;99.90;;;;;;5052065;28;20045;-73
2021/06/23 06:25:51;;;;;;;2.35;1.58;;;20.10;99.90;;;;;;5052451;28;20125;-76
2021/06/23 06:28:17;;;;;;;2.97;1.80;;;20.20;99.90;;;;;;5052768;28;20040;-80
2021/06/23 06:30:43;;;;;;;2.92;1.55;;;20.30;99.90;;;;;;5052642;28;20025;-80
2021/06/23 06:33:08;;;;;;;3.95;1.48;;;20.40;99.90;;;;;;5053386;28;20087;-78
2021/06/23 06:35:35;;;;;;;4.10;1.50;;;20.50;99.90;;;;;;5053760;28;20032;-84
2021/06/23 06:38:00;;;;;;;1.38;1.27;;;20.70;99.90;;;;;;5053422;28;20116;-70
2021/06/23 06:40:26;;;;;;;3.53;1.40;;;20.80;99.90;;;;;;5051553;28;20260;-88
2021/06/23 06:42:52;;;;;;;1.33;1.20;;;20.90;99.90;;;;;;5053837;28;20024;-90
2021/06/23 06:45:19;;;;;;;4.85;1.25;;;20.90;99.90;;;;;;5052721;28;20565;-91
2021/06/23 06:47:45;;;;;;;5.95;1.60;;;21.00;99.90;;;;;;5053005;28;20025;-89
2021/06/23 06:50:11;;;;;;;3.45;1.20;;;21.10;99.90;;;;;;5052273;28;20086;-89
2021/06/23 06:52:37;;;;;;;2.90;1.00;;;21.10;99.90;;;;;;5052909;28;20032;-89
2021/06/23 06:55:04;;;;;;;7.72;1.33;;;21.20;99.90;;;;;;5053991;28;20102;-90
2021/06/23 06:57:30;;;;;;;1.73;1.25;;;21.30;99.90;;;;;;5054506;28;20029;-85
2021/06/23 06:59:56;;;;;;;2.83;1.38;;;21.40;99.90;;;;;;5057406;28;20143;-85
2021/06/23 07:02:21;;;;;;;2.38;1.25;;;21.60;98.40;;;;;;5063462;28;20015;-78
2021/06/23 07:04:47;;;;;;;3.42;1.40;;;21.70;97.40;;;;;;5070333;28;20090;-81
2021/06/23 07:07:13;;;;;;;4.15;1.30;;;21.80;97.70;;;;;;5059095;28;20029;-86
2021/06/23 07:09:38;;;;;;;1.52;1.30;;;21.80;98.20;;;;;;5055134;28;20382;-90
2021/06/23 07:12:06;;;;;;;1.85;1.20;;;21.90;97.80;;;;;;5054952;28;20033;-93
2021/06/23 07:14:32;;;;;;;2.17;1.27;;;21.90;97.90;;;;;;5052273;28;20037;-90
2021/06/23 07:16:57;;;;;;;3.13;1.35;;;22.00;98.30;;;;;;5065282;28;20103;-84
2021/06/23 07:19:23;;;;;;;2.47;1.17;;;22.00;97.30;;;;;;5076439;28;20056;-81
2021/06/23 07:21:49;;;;;;;5.80;1.63;;;22.10;96.90;;;;;;5076840;28;20108;-91
2021/06/23 07:24:18;;;;;;;3.80;1.45;;;22.20;95.90;;;;;;5063776;28;20056;-91
2021/06/23 07:26:45;;;;;;;1.33;1.20;;;22.30;95.60;;;;;;5063957;28;20094;-90
2021/06/23 07:29:11;;;;;;;6.68;1.98;;;22.40;95.30;;;;;;5062866;28;20036;-76
2021/06/23 07:36:39;;;;;;;2.67;1.65;;;22.70;92.40;;;;;;5055673;28;20020;-92
2021/06/23 07:39:08;;;;;;;2.78;1.35;;;22.90;91.40;;;;;;5053424;28;20037;-92
2021/06/23 07:41:35;;;;;;;1.52;0.80;;;22.90;92.40;;;;;;5053789;28;20025;-91
2021/06/23 07:44:01;;;;;;;1.48;1.00;;;22.90;93.00;;;;;;5054792;28;20033;-89
2021/06/23 07:46:29;;;;;;;1.15;1.05;;;23.00;92.40;;;;;;5053030;28;20109;-92
2021/06/23 07:48:56;;;;;;;5.57;1.27;;;23.10;93.50;;;;;;5054436;28;20037;-88
2021/06/23 07:51:31;;;;;;;1.45;1.00;;;23.20;94.30;;;;;;5052153;28;20044;-92
2021/06/23 07:56:32;;;;;;;1.50;1.40;;;23.50;91.90;;;;;;5053311;28;20382;-93
2021/06/23 08:10:08;;;;;;;3.65;1.52;;;24.10;91.20;;;;;;5076704;28;20102;-85
2021/06/23 08:12:50;;;;;;;3.83;1.50;;;24.20;91.80;;;;;;5075587;28;20051;-87
2021/06/23 08:15:16;;;;;;;5.38;1.42;;;24.20;89.80;;;;;;5073030;28;20048;-75
2021/06/23 08:17:42;;;;;;;4.70;1.67;;;24.20;91.30;;;;;;5076418;28;20065;-88
2021/06/23 08:20:08;;;;;;;5.72;1.73;;;24.30;90.10;;;;;;5067218;28;20040;-82
2021/06/23 08:22:34;;;;;;;2.83;1.67;;;24.50;90.30;;;;;;5075860;28;20020;-87
2021/06/23 08:25:00;;;;;;;2.58;1.67;;;24.60;89.70;;;;;;5063376;28;20045;-87
2021/06/23 08:27:26;;;;;;;8.30;1.70;;;24.70;90.50;;;;;;5065922;28;20028;-89
2021/06/23 08:29:51;;;;;;;1.45;1.30;;;24.70;90.70;;;;;;5072936;28;20377;-89
2021/06/23 08:32:17;;;;;;;3.47;1.70;;;24.90;91.20;;;;;;5071546;28;20074;-88
2021/06/23 08:34:42;;;;;;;3.33;1.58;;;25.00;92.00;;;;;;5074237;28;20034;-89
2021/06/23 08:37:08;;;;;;;2.67;1.42;;;25.20;88.40;;;;;;5074966;28;20035;-83
2021/06/23 08:39:34;;;;;;;3.88;1.92;;;25.30;79.80;;;;;;5073591;28;20021;-88
2021/06/23 08:41:59;;;;;;;3.95;1.80;;;25.40;79.80;;;;;;5054749;28;20028;-87
2021/06/23 08:44:25;;;;;;;3.22;1.75;;;25.50;79.40;;;;;;5060060;28;20032;-88
2021/06/23 08:46:51;;;;;;;4.95;1.70;;;25.60;79.80;;;;;;5056868;28;20025;-85
2021/06/23 08:49:18;;;;;;;6.85;2.05;;;25.70;79.40;;;;;;5051574;28;20346;-85
2021/06/23 08:51:44;;;;;;;3.05;1.98;;;25.50;77.20;;;;;;5050874;28;20025;-86
2021/06/23 08:54:10;;;;;;;3.63;1.58;;;25.30;77.10;;;;;;5051660;28;20055;-80
2021/06/23 08:56:36;;;;;;;4.13;1.23;;;25.10;78.20;;;;;;5050687;28;20021;-87
2021/06/23 08:59:04;;;;;;;2.08;1.35;;;25.20;77.30;;;;;;5055083;28;20463;-87
2021/06/23 09:01:31;;;;;;;1.20;1.10;;;25.30;75.50;;;;;;5050072;28;20041;-87
2021/06/23 09:04:15;;;;;;;14.63;1.80;;;25.20;75.60;;;;;;5050932;28;20033;-86
2021/06/23 09:06:48;;;;;;;7.43;1.55;;;25.30;74.30;;;;;;5051472;28;20025;-87
2021/06/23 09:09:34;;;;;;;1.75;1.00;;;25.30;73.50;;;;;;5047628;28;20033;-80
2021/06/23 09:12:07;;;;;;;2.25;1.13;;;25.50;73.10;;;;;;5050320;28;20028;-88
2021/06/23 09:14:37;;;;;;;2.65;1.05;;;25.80;73.30;;;;;;5051899;28;20029;-87
2021/06/23 09:17:05;;;;;;;4.90;1.15;;;26.00;76.90;;;;;;5055782;28;20025;-87
2021/06/23 09:19:39;;;;;;;3.53;1.20;;;26.20;67.90;;;;;;5054275;28;20222;-85
2021/06/23 09:22:26;;;;;;;1.50;0.90;;;26.30;66.70;;;;;;5056554;28;20103;-84
2021/06/23 09:24:52;;;;;;;4.25;1.33;;;26.60;65.60;;;;;;5056243;28;20037;-85
2021/06/23 09:27:22;;;;;;;2.25;1.48;;;26.70;67.30;;;;;;5056394;28;20040;-83
2021/06/23 09:29:51;;;;;;;2.28;1.55;;;26.90;69.30;;;;;;5056481;28;20387;-84
2021/06/23 09:32:18;;;;;;;3.25;1.10;;;26.80;67.30;;;;;;5058283;28;20036;-84
2021/06/23 09:34:46;;;;;;;2.13;1.00;;;26.60;67.30;;;;;;5055819;28;20237;-87
2021/06/23 09:37:30;;;;;;;3.25;0.85;;;26.50;67.80;;;;;;5068913;28;20025;-77
2021/06/23 09:40:20;;;;;;;1.65;1.10;;;26.40;65.90;;;;;;5063481;28;20031;-86
2021/06/23 09:42:47;;;;;;;1.55;0.85;;;26.40;66.50;;;;;;5054556;28;20462;-72
2021/06/23 09:45:15;;;;;;;1.25;0.80;;;26.40;67.20;;;;;;5053906;28;20056;-66
2021/06/23 09:47:44;;;;;;;4.05;0.93;;;26.60;66.80;;;;;;5053843;28;20104;-68
2021/06/23 09:50:11;;;;;;;0.90;0.90;;;26.80;66.20;;;;;;5053935;28;20024;-68
2021/06/23 09:53:13;;;;;;;3.08;1.00;;;26.90;65.70;;;;;;5053527;28;20033;-67
2021/06/23 09:55:48;;;;;;;2.58;0.90;;;27.10;68.10;;;;;;5053836;28;20044;-66
2021/06/23 09:58:20;;;;;;;0.75;0.75;;;27.40;68.00;;;;;;5052855;28;20107;-66
2021/06/23 10:00:59;;;;;;;0.60;0.60;;;27.60;66.10;;;;;;5054295;28;20036;-66
2021/06/23 10:03:26;;;;;;;1.40;0.95;;;27.60;74.80;;;;;;5053034;28;20451;-67
2021/06/23 10:05:53;;;;;;;3.47;1.52;;;27.90;73.70;;;;;;5053279;28;20040;-67
2021/06/23 10:08:23;;;;;;;4.55;0.80;;;27.80;56.80;;;;;;5053114;28;20386;-66
2021/06/23 10:10:50;;;;;;;1.08;0.98;;;27.80;55.60;;;;;;5053742;28;20027;-66
2021/06/23 10:13:16;;;;;;;14.27;1.60;;;27.80;55.00;;;;;;5052903;28;20037;-66
2021/06/23 10:15:44;;;;;;;5.30;0.68;;;27.70;57.00;;;;;;5053394;28;20025;-66
2021/06/23 10:18:10;;;;;;;2.10;0.73;;;27.80;55.10;;;;;;5053167;28;20474;-67
2021/06/23 10:20:36;;;;;;;0.90;0.75;;;27.80;54.70;;;;;;5052697;28;20907;-67
2021/06/23 10:23:07;;;;;;;2.13;0.70;;;27.90;53.90;;;;;;5053741;28;20139;-67
2021/06/23 10:25:33;;;;;;;4.50;0.60;;;28.00;54.30;;;;;;5052353;28;20029;-67
2021/06/23 10:27:59;;;;;;;1.10;0.90;;;28.00;54.00;;;;;;5053099;28;20100;-67
2021/06/23 10:30:30;;;;;;;1.98;0.90;;;28.10;52.10;;;;;;5052480;28;20036;-67
2021/06/23 10:32:57;;;;;;;0.70;0.70;;;28.10;52.90;;;;;;5053574;28;20025;-67
2021/06/23 10:35:23;;;;;;;2.72;0.68;;;28.20;53.80;;;;;;5052092;28;20037;-67
2021/06/23 10:37:51;;;;;;;0.60;0.60;;;28.30;52.80;;;;;;5053687;28;20100;-67
2021/06/23 10:40:18;;;;;;;2.70;0.70;;;28.20;53.70;;;;;;5053150;28;20117;-67
2021/06/23 10:42:44;;;;;;;0.52;0.50;;;28.30;52.40;;;;;;5052559;28;20546;-67
2021/06/23 10:45:11;;;;;;;0.60;0.60;;;28.40;52.10;;;;;;5048659;28;20124;-68
2021/06/23 10:47:41;;;;;;;0.60;0.60;;;28.40;52.60;;;;;;5053873;28;20133;-67
2021/06/23 10:50:31;;;;;;;0.52;0.43;;;28.20;51.50;;;;;;5052819;28;20021;-68
2021/06/23 10:52:57;;;;;;;1.95;0.50;;;28.20;52.40;;;;;;5049953;28;20033;-68
2021/06/23 10:55:22;;;;;;;0.80;0.55;;;28.30;52.90;;;;;;5052246;28;20087;-68
2021/06/23 10:57:50;;;;;;;0.70;0.60;;;28.40;51.50;;;;;;5052329;28;20393;-68
2021/06/23 11:00:20;;;;;;;0.60;0.60;;;28.50;52.00;;;;;;5053608;28;20025;-68
2021/06/23 11:02:58;;;;;;;1.42;0.98;;;28.80;53.90;;;;;;5053827;28;20017;-67
2021/06/23 11:05:31;;;;;;;1.55;1.00;;;28.90;53.60;;;;;;5051645;28;20052;-68
2021/06/23 11:07:58;;;;;;;0.68;0.68;;;29.00;54.50;;;;;;5053537;28;20060;-68
2021/06/23 11:10:38;;;;;;;1.67;0.80;;;28.80;54.50;;;;;;5052704;28;20035;-68
2021/06/23 11:13:06;;;;;;;0.75;0.75;;;28.40;52.90;;;;;;5053037;28;20033;-68
2021/06/23 11:15:32;;;;;;;2.53;0.90;;;28.10;54.70;;;;;;5052189;28;20034;-68
2021/06/23 11:18:31;;;;;;;4.18;0.77;;;27.90;55.70;;;;;;5053355;28;20029;-68
2021/06/23 11:21:15;;;;;;;6.47;0.60;;;27.70;56.00;;;;;;5053086;28;20063;-67
2021/06/23 11:24:12;;;;;;;1.75;0.75;;;27.40;55.40;;;;;;5051101;28;20458;-67
2021/06/23 11:26:46;;;;;;;0.75;0.63;;;27.20;57.10;;;;;;5052304;28;20036;-67
2021/06/23 11:29:13;;;;;;;0.52;0.52;;;27.10;56.10;;;;;;5053163;28;20021;-67
2021/06/23 11:31:59;;;;;;;3.30;0.77;;;26.90;57.60;;;;;;5052341;28;20017;-67
2021/06/23 11:34:39;;;;;;;1.45;0.80;;;26.80;58.40;;;;;;5052958;28;20123;-67
2021/06/23 11:37:08;;;;;;;6.10;1.08;;;26.90;57.40;;;;;;5052507;28;20037;-67
2021/06/23 11:39:34;;;;;;;4.32;0.75;;;27.30;58.40;;;;;;5051401;28;20036;-67
2021/06/23 11:41:59;;;;;;;0.73;0.40;;;27.40;56.50;;;;;;5052979;28;20032;-67
2021/06/23 11:44:25;;;;;;;0.68;0.50;;;27.40;54.50;;;;;;5052289;28;20033;-67
2021/06/23 11:46:53;;;;;;;0.57;0.50;;;27.40;54.70;;;;;;5051852;28;20029;-67
2021/06/23 11:49:19;;;;;;;2.42;0.70;;;27.50;54.40;;;;;;5052915;28;20029;-67
2021/06/23 11:51:44;;;;;;;0.50;0.50;;;27.80;55.40;;;;;;5043671;28;20470;-67
2021/06/23 11:54:10;;;;;;;1.42;0.50;;;28.10;53.30;;;;;;5044075;28;20049;-67
2021/06/23 11:56:36;;;;;;;3.50;0.50;;;28.40;53.80;;;;;;5051892;28;20081;-67
2021/06/23 11:59:02;;;;;;;0.50;0.50;;;28.70;52.80;;;;;;5052001;28;20355;-67
2021/06/23 12:01:28;;;;;;;3.08;0.32;;;29.00;52.10;;;;;;5052119;28;20036;-67
2021/06/23 12:03:56;;;;;;;0.40;0.40;;;29.10;51.80;;;;;;5051700;28;20107;-67
2021/06/23 12:06:21;;;;;;;0.40;0.40;;;29.00;52.10;;;;;;5052135;28;20033;-67
2021/06/23 12:08:47;;;;;;;0.70;0.70;;;28.80;51.10;;;;;;5051122;28;20891;-67
2021/06/23 12:11:13;;;;;;;2.50;0.60;;;28.20;51.80;;;;;;5051582;28;20494;-67
2021/06/23 12:13:39;;;;;;;1.13;0.60;;;27.80;52.10;;;;;;5049648;28;20052;-67
2021/06/23 12:16:05;;;;;;;2.85;0.57;;;27.40;53.20;;;;;;5051603;28;20029;-67
2021/06/23 12:18:31;;;;;;;0.85;0.70;;;27.30;54.10;;;;;;5051265;28;20484;-67
2021/06/23 12:20:57;;;;;;;0.43;0.43;;;27.50;53.90;;;;;;5051771;28;20021;-67
2021/06/23 12:23:22;;;;;;;0.63;0.60;;;27.70;51.90;;;;;;5051721;28;20108;-67
2021/06/23 12:25:50;;;;;;;1.77;0.50;;;27.60;53.10;;;;;;5050673;28;20381;-67
2021/06/23 12:28:17;;;;;;;0.55;0.50;;;27.40;53.10;;;;;;5051850;28;20029;-67
2021/06/23 12:30:46;;;;;;;0.55;0.50;;;27.40;52.50;;;;;;5050765;28;20040;-67
2021/06/23 12:33:14;;;;;;;0.30;0.30;;;27.60;52.90;;;;;;5051405;28;20028;-67
2021/06/23 12:35:42;;;;;;;0.57;0.30;;;27.80;51.00;;;;;;5051189;28;20124;-67
2021/06/23 12:38:09;;;;;;;1.77;0.60;;;28.20;50.40;;;;;;5051556;28;20036;-67
2021/06/23 12:40:36;;;;;;;0.30;0.30;;;28.40;48.60;;;;;;5051227;28;20112;-67
2021/06/23 12:43:03;;;;;;;4.22;0.82;;;28.60;49.20;;;;;;5052345;28;20074;-67
2021/06/23 12:45:28;;;;;;;1.55;0.50;;;28.90;48.10;;;;;;5051343;28;20035;-67
2021/06/23 12:47:54;;;;;;;1.65;0.40;;;29.10;47.50;;;;;;5051940;28;20025;-67
2021/06/23 12:50:20;;;;;;;0.63;0.30;;;29.40;46.70;;;;;;5051077;28;20443;-67
2021/06/23 12:52:48;;;;;;;1.55;0.30;;;29.50;45.10;;;;;;5049756;28;20036;-67
2021/06/23 12:55:16;;;;;;;0.85;0.50;;;29.80;45.40;;;;;;5051737;28;20041;-66
2021/06/23 12:57:43;;;;;;;0.40;0.40;;;30.10;44.80;;;;;;5051055;28;20029;-66
2021/06/23 13:00:11;;;;;;;0.68;0.50;;;30.40;45.50;;;;;;5051586;28;20439;-66
2021/06/23 13:02:37;;;;;;;0.50;0.50;;;30.40;45.60;;;;;;5051031;28;20051;-67
2021/06/23 13:05:08;;;;;;;0.90;0.60;;;30.50;46.40;;;;;;5051881;28;20120;-66
2021/06/23 13:07:34;;;;;;;1.13;0.52;;;30.50;45.20;;;;;;5050943;28;20040;-66
2021/06/23 13:10:01;;;;;;;0.52;0.50;;;30.20;46.30;;;;;;5051325;28;20025;-66
2021/06/23 13:12:28;;;;;;;1.15;0.60;;;30.00;46.30;;;;;;5050039;28;20033;-66